Time;durP1;ratioP1;P1;durP2;ratioP2;P2;SDS_P1;SDS_P2;PMS_P1;PMS_P2;Temp;Humidity;BMP_temperature;BMP_pressure;BME280_temperature;BME280_humidity;BME280_pressure;Samples;Min_cycle;Max_cycle;Signal;HPM_P1;HPM_P2
2021/10/11 00:00:26;;;;;;;4.45;4.00;;;2.00;99.90;;;;;;5022775;28;20540;-78
2021/10/11 00:03:11;;;;;;;4.68;4.13;;;2.00;99.90;;;;;;5036843;28;20941;-77
2021/10/11 00:05:55;;;;;;;5.35;4.68;;;2.00;99.90;;;;;;5035918;28;20767;-77
2021/10/11 00:08:39;;;;;;;4.93;4.40;;;2.00;99.90;;;;;;5003457;28;20422;-78
2021/10/11 00:11:23;;;;;;;5.87;4.67;;;1.90;99.90;;;;;;5037499;28;20594;-77
2021/10/11 00:14:08;;;;;;;4.28;3.88;;;1.80;99.90;;;;;;5035707;28;20402;-77
2021/10/11 00:16:52;;;;;;;5.72;4.20;;;1.80;99.90;;;;;;5040472;28;20450;-77
2021/10/11 00:19:37;;;;;;;4.83;3.87;;;1.80;99.90;;;;;;5036045;28;20479;-77
2021/10/11 00:22:21;;;;;;;6.03;4.35;;;1.80;99.90;;;;;;5023392;28;20402;-78
2021/10/11 00:25:06;;;;;;;6.65;4.35;;;1.80;99.90;;;;;;5021928;28;20402;-77
2021/10/11 00:27:51;;;;;;;6.63;4.75;;;1.80;99.90;;;;;;5036106;28;20461;-78
2021/10/11 00:30:35;;;;;;;5.55;4.22;;;1.80;99.90;;;;;;5035961;28;21527;-77
2021/10/11 00:33:19;;;;;;;8.47;4.53;;;1.70;99.90;;;;;;5021745;28;20707;-77
2021/10/11 00:36:04;;;;;;;4.28;3.70;;;1.70;99.90;;;;;;5033796;28;20421;-77
2021/10/11 00:38:48;;;;;;;6.30;3.97;;;1.80;99.90;;;;;;5035569;28;20445;-77
2021/10/11 00:41:33;;;;;;;3.95;3.55;;;1.60;99.90;;;;;;5024898;28;20489;-77
2021/10/11 00:44:17;;;;;;;4.15;3.63;;;1.70;99.90;;;;;;5013011;28;20932;-77
2021/10/11 00:47:01;;;;;;;5.63;3.88;;;1.60;99.90;;;;;;5040632;28;20920;-78
2021/10/11 00:49:45;;;;;;;4.63;4.20;;;1.60;99.90;;;;;;5030003;28;20469;-77
2021/10/11 00:52:30;;;;;;;9.68;4.65;;;1.60;99.90;;;;;;5024969;28;20390;-77
2021/10/11 00:55:14;;;;;;;4.30;3.90;;;1.50;99.90;;;;;;5017449;28;21148;-78
2021/10/11 00:57:58;;;;;;;4.95;4.43;;;1.50;99.90;;;;;;5013756;28;20443;-77
2021/10/11 01:00:42;;;;;;;5.55;4.90;;;1.50;99.90;;;;;;5003042;28;20488;-77
2021/10/11 01:03:27;;;;;;;8.30;6.97;;;1.40;99.90;;;;;;5035040;28;20403;-77
2021/10/11 01:06:11;;;;;;;7.55;5.65;;;1.30;99.90;;;;;;5032628;28;20437;-78
2021/10/11 01:08:55;;;;;;;6.43;5.68;;;1.20;99.90;;;;;;5034842;28;20486;-77
2021/10/11 01:11:39;;;;;;;7.60;5.32;;;1.10;99.90;;;;;;5036697;28;20386;-77
2021/10/11 01:14:25;;;;;;;5.50;4.65;;;1.00;99.90;;;;;;5020341;28;20425;-77
2021/10/11 01:17:09;;;;;;;5.57;4.75;;;1.00;99.90;;;;;;5030310;28;20422;-78
2021/10/11 01:19:57;;;;;;;5.38;4.68;;;1.10;99.90;;;;;;5021534;28;20406;-77
2021/10/11 01:22:43;;;;;;;5.95;4.60;;;1.10;99.90;;;;;;5034604;28;20406;-78
2021/10/11 01:25:27;;;;;;;5.05;4.47;;;1.20;99.90;;;;;;5035755;28;20453;-77
2021/10/11 01:28:12;;;;;;;5.53;4.50;;;1.10;99.90;;;;;;5033999;28;20441;-77
2021/10/11 01:30:57;;;;;;;4.55;4.15;;;1.10;99.90;;;;;;5035615;28;20398;-77
2021/10/11 01:33:41;;;;;;;4.63;4.22;;;1.10;99.90;;;;;;5034327;28;20782;-77
2021/10/11 01:36:25;;;;;;;4.53;3.95;;;1.10;99.90;;;;;;5024914;28;20976;-77
2021/10/11 01:39:09;;;;;;;4.15;3.58;;;1.10;99.90;;;;;;5032397;28;20831;-77
2021/10/11 01:41:55;;;;;;;5.20;4.63;;;1.00;99.90;;;;;;5021399;28;20834;-77
2021/10/11 01:44:41;;;;;;;4.57;4.10;;;1.00;99.90;;;;;;5032966;28;20470;-77
2021/10/11 01:47:26;;;;;;;6.43;5.22;;;1.00;99.90;;;;;;5019321;28;20387;-77
2021/10/11 01:50:10;;;;;;;5.43;4.00;;;1.00;99.90;;;;;;5040913;28;20946;-77
2021/10/11 01:52:54;;;;;;;4.78;4.07;;;0.90;99.90;;;;;;5021878;28;20394;-77
2021/10/11 01:55:38;;;;;;;4.60;4.20;;;0.90;99.90;;;;;;5035588;28;20443;-77
2021/10/11 01:58:23;;;;;;;4.75;4.28;;;0.90;99.90;;;;;;5035553;28;20398;-77
2021/10/11 02:01:08;;;;;;;4.90;4.32;;;0.80;99.90;;;;;;5034549;28;20775;-77
2021/10/11 02:03:52;;;;;;;5.05;4.28;;;0.80;99.90;;;;;;5030634;28;20473;-77
2021/10/11 02:06:39;;;;;;;4.72;4.32;;;0.70;99.90;;;;;;5027410;28;21173;-77
2021/10/11 02:09:24;;;;;;;4.72;4.18;;;0.70;99.90;;;;;;5020740;28;20398;-77
2021/10/11 02:12:08;;;;;;;4.40;4.00;;;0.70;99.90;;;;;;5021254;28;20957;-77
2021/10/11 02:14:52;;;;;;;4.57;4.18;;;0.80;99.90;;;;;;5023033;28;20412;-77
2021/10/11 02:17:36;;;;;;;6.60;4.78;;;0.70;99.90;;;;;;5029128;28;20835;-78
2021/10/11 02:20:21;;;;;;;5.60;4.18;;;0.60;99.90;;;;;;5021160;28;20398;-77
2021/10/11 02:23:05;;;;;;;4.53;4.13;;;0.50;99.90;;;;;;5038451;28;20452;-77
2021/10/11 02:25:49;;;;;;;5.03;4.28;;;0.50;99.90;;;;;;5039261;28;20481;-77
2021/10/11 02:28:33;;;;;;;4.75;4.13;;;0.50;99.90;;;;;;5023982;28;20398;-77
2021/10/11 02:31:18;;;;;;;5.10;4.63;;;0.60;99.90;;;;;;5021251;28;20398;-77
2021/10/11 02:34:02;;;;;;;4.50;4.10;;;0.60;99.90;;;;;;5023920;28;20449;-77
2021/10/11 02:36:47;;;;;;;5.43;3.93;;;0.50;99.90;;;;;;5035154;28;21129;-77
2021/10/11 02:39:31;;;;;;;4.50;4.10;;;0.40;99.90;;;;;;5036331;28;20414;-76
2021/10/11 02:42:15;;;;;;;4.43;3.92;;;0.40;99.90;;;;;;5020362;28;20399;-76
2021/10/11 02:45:00;;;;;;;4.55;3.90;;;0.50;99.90;;;;;;5041978;28;20948;-77
2021/10/11 02:47:44;;;;;;;4.25;3.85;;;0.50;99.90;;;;;;5038971;28;20405;-77
2021/10/11 02:50:28;;;;;;;5.55;4.50;;;0.40;99.90;;;;;;5018967;28;20460;-77
2021/10/11 02:53:13;;;;;;;4.90;3.97;;;0.40;99.90;;;;;;5038429;28;20406;-76
2021/10/11 02:55:57;;;;;;;4.35;3.95;;;0.60;99.90;;;;;;5038350;28;20472;-77
2021/10/11 02:58:42;;;;;;;4.35;3.75;;;0.50;99.90;;;;;;5032916;28;20392;-77
2021/10/11 03:01:26;;;;;;;4.82;4.32;;;0.40;99.90;;;;;;5038451;28;20390;-77
2021/10/11 03:04:10;;;;;;;7.13;4.80;;;0.50;99.90;;;;;;5023902;28;20398;-77
2021/10/11 03:06:54;;;;;;;4.53;4.07;;;0.40;99.90;;;;;;5041916;28;20426;-77
2021/10/11 03:09:39;;;;;;;5.63;4.57;;;0.40;99.90;;;;;;5024244;28;21118;-77
2021/10/11 03:12:23;;;;;;;4.70;4.22;;;0.40;99.90;;;;;;5037582;28;21109;-77
2021/10/11 03:15:07;;;;;;;5.05;4.50;;;0.40;99.90;;;;;;5019476;28;20398;-77
2021/10/11 03:17:51;;;;;;;4.65;3.80;;;0.40;99.90;;;;;;5043360;28;21205;-77
2021/10/11 03:20:36;;;;;;;5.22;4.25;;;0.40;99.90;;;;;;5023017;28;20818;-77
2021/10/11 03:23:20;;;;;;;4.28;3.88;;;0.50;99.90;;;;;;5018468;28;20445;-76
2021/10/11 03:26:04;;;;;;;4.72;4.05;;;0.50;99.90;;;;;;5035472;28;20449;-76
2021/10/11 03:28:49;;;;;;;4.40;4.00;;;0.50;99.90;;;;;;5039557;28;20393;-77
2021/10/11 03:31:33;;;;;;;4.28;3.88;;;0.50;99.90;;;;;;5028244;28;20406;-76
2021/10/11 03:34:18;;;;;;;6.20;4.50;;;0.50;99.90;;;;;;5034040;28;20954;-76
2021/10/11 03:37:04;;;;;;;6.00;4.45;;;0.50;99.90;;;;;;5024858;28;20839;-76
2021/10/11 03:39:49;;;;;;;4.80;4.25;;;0.50;99.90;;;;;;5022829;28;20494;-76
2021/10/11 03:42:33;;;;;;;4.38;3.90;;;0.50;99.90;;;;;;5009010;28;20872;-77
2021/10/11 03:45:17;;;;;;;4.82;4.32;;;0.50;99.90;;;;;;5025740;28;20445;-76
2021/10/11 03:48:01;;;;;;;4.63;4.07;;;0.60;99.90;;;;;;5034267;28;20410;-76
2021/10/11 03:50:46;;;;;;;4.65;4.05;;;0.50;99.90;;;;;;5037661;28;20925;-76
2021/10/11 03:53:30;;;;;;;6.38;4.53;;;0.60;99.90;;;;;;5037296;28;20868;-76
2021/10/11 03:56:14;;;;;;;5.20;4.38;;;0.70;99.90;;;;;;5012144;28;20414;-76
2021/10/11 03:58:58;;;;;;;4.65;4.18;;;0.60;99.90;;;;;;5035642;28;20406;-76
2021/10/11 04:01:43;;;;;;;5.72;5.07;;;0.70;99.90;;;;;;5037819;28;20417;-76
2021/10/11 04:04:27;;;;;;;4.30;3.90;;;0.80;99.90;;;;;;5017462;28;20385;-77
2021/10/11 04:07:14;;;;;;;4.38;3.97;;;0.70;99.90;;;;;;5018143;28;20398;-77
2021/10/11 04:10:02;;;;;;;5.70;4.70;;;0.70;99.90;;;;;;5036589;28;20390;-76
2021/10/11 04:12:50;;;;;;;4.75;4.25;;;0.80;99.90;;;;;;5035714;28;20445;-77
2021/10/11 04:15:34;;;;;;;4.50;4.10;;;0.90;99.90;;;;;;5041485;28;20433;-77
2021/10/11 04:18:18;;;;;;;4.70;4.25;;;0.80;99.90;;;;;;5021833;28;20402;-77
2021/10/11 04:21:03;;;;;;;6.82;4.53;;;0.90;99.90;;;;;;5022383;28;20508;-76
2021/10/11 04:23:48;;;;;;;4.37;3.97;;;0.90;99.90;;;;;;5036649;28;20452;-77
2021/10/11 04:26:32;;;;;;;6.57;4.97;;;0.90;99.90;;;;;;5028613;28;20470;-80
2021/10/11 04:29:17;;;;;;;5.97;4.40;;;0.90;99.90;;;;;;5030317;28;20917;-78
2021/10/11 04:32:01;;;;;;;4.77;4.27;;;1.00;99.90;;;;;;5024231;28;20475;-76
2021/10/11 04:34:46;;;;;;;5.97;4.43;;;1.00;99.90;;;;;;5032834;28;20448;-76
2021/10/11 04:37:30;;;;;;;6.00;4.33;;;1.10;99.90;;;;;;5033659;28;20467;-76
2021/10/11 04:40:14;;;;;;;4.47;4.07;;;1.10;99.90;;;;;;5028686;28;20465;-76
2021/10/11 04:42:59;;;;;;;4.32;3.88;;;1.20;99.90;;;;;;5007918;28;20991;-75
2021/10/11 04:45:43;;;;;;;4.68;4.05;;;1.10;99.90;;;;;;5037089;28;20453;-76
2021/10/11 04:48:27;;;;;;;5.20;4.70;;;1.20;99.90;;;;;;5023766;28;20971;-77
2021/10/11 04:51:12;;;;;;;5.03;4.50;;;1.20;99.90;;;;;;5036659;28;20426;-77
2021/10/11 04:53:56;;;;;;;7.68;4.47;;;1.20;99.90;;;;;;5039445;28;20414;-77
2021/10/11 04:56:41;;;;;;;6.65;4.72;;;1.40;99.90;;;;;;5042363;28;20428;-77
2021/10/11 04:59:25;;;;;;;5.33;4.83;;;1.40;99.90;;;;;;5036495;28;20417;-78
2021/10/11 05:02:10;;;;;;;5.50;4.57;;;1.40;99.90;;;;;;5035208;28;20410;-78
2021/10/11 05:04:54;;;;;;;5.45;4.88;;;1.50;99.90;;;;;;5023159;28;20520;-78
2021/10/11 05:07:38;;;;;;;5.13;4.60;;;1.50;99.90;;;;;;5020358;28;20398;-78
2021/10/11 05:10:23;;;;;;;5.03;4.53;;;1.50;99.90;;;;;;5040989;28;20410;-78
2021/10/11 05:13:07;;;;;;;5.10;4.43;;;1.60;99.90;;;;;;5015737;28;20409;-78
2021/10/11 05:18:56;;;;;;;7.80;4.72;;;1.70;99.90;;;;;;4738437;26;21063;-83
2021/10/11 05:21:45;;;;;;;5.97;5.10;;;1.80;99.90;;;;;;4965841;28;20490;-86
2021/10/11 05:25:16;;;;;;;5.80;4.90;;;1.80;99.90;;;;;;4975243;28;20447;-86
2021/10/11 05:28:21;;;;;;;5.80;5.05;;;2.00;99.90;;;;;;4964620;28;20409;-88
2021/10/11 05:31:21;;;;;;;6.10;4.80;;;2.00;99.90;;;;;;4964218;28;20405;-85
2021/10/11 05:54:15;;;;;;;4.85;4.43;;;2.40;99.90;;;;;;4928260;28;20433;-87
2021/10/11 05:57:08;;;;;;;5.15;4.32;;;2.50;99.90;;;;;;4897274;28;20402;-85
2021/10/11 06:00:05;;;;;;;5.82;5.05;;;2.50;99.90;;;;;;4920460;28;20453;-89
2021/10/11 06:03:05;;;;;;;6.07;4.72;;;2.70;99.90;;;;;;5028139;23;20447;-87
2021/10/11 06:06:47;;;;;;;5.63;4.72;;;2.70;99.90;;;;;;4950733;28;20415;-86
2021/10/11 06:10:16;;;;;;;5.75;5.25;;;3.00;99.90;;;;;;4964533;28;20403;-84
2021/10/11 06:14:04;;;;;;;6.53;5.45;;;2.70;99.90;;;;;;4968975;28;20429;-87
2021/10/11 10:00:44;;;;;;;9.73;7.75;;;10.20;99.90;;;;;;5442109;23;20403;-82
2021/10/11 10:16:18;;;;;;;11.18;7.53;;;10.20;99.90;;;;;;5491513;23;20427;-82
2021/10/11 10:30:57;;;;;;;10.23;8.70;;;10.30;99.90;;;;;;4981347;23;20520;-81
2021/10/11 10:49:09;;;;;;;12.57;9.40;;;10.40;99.90;;;;;;5148583;23;20425;-82
2021/10/11 10:52:36;;;;;;;11.07;8.25;;;10.40;99.90;;;;;;4918533;29;20392;-82
2021/10/11 11:01:04;;;;;;;11.55;10.35;;;10.10;99.90;;;;;;4956409;28;20526;-80
2021/10/11 11:14:16;;;;;;;12.02;9.23;;;9.80;99.90;;;;;;4917143;29;20423;-81
2021/10/11 12:25:22;;;;;;;10.90;8.93;;;10.90;99.90;;;;;;5307711;23;20441;-89
2021/10/11 12:37:03;;;;;;;9.60;8.60;;;11.00;99.90;;;;;;5059971;23;20442;-91
2021/10/11 12:46:11;;;;;;;8.63;7.72;;;11.20;99.90;;;;;;2917480;23;20425;-85
2021/10/11 12:48:59;;;;;;;7.88;7.18;;;11.30;99.90;;;;;;4970295;23;20455;-89
2021/10/11 12:51:48;;;;;;;10.02;9.02;;;11.40;99.90;;;;;;4938947;28;20445;-88
2021/10/11 12:54:35;;;;;;;8.57;7.10;;;11.40;99.90;;;;;;4941574;29;20486;-88
2021/10/11 12:57:26;;;;;;;8.02;7.22;;;11.40;99.90;;;;;;4921027;29;20422;-88
2021/10/11 13:00:12;;;;;;;7.90;6.83;;;11.50;99.90;;;;;;4932595;29;20431;-88
2021/10/11 13:02:56;;;;;;;9.35;8.45;;;11.50;99.90;;;;;;4933237;29;20393;-87
2021/10/11 13:05:41;;;;;;;9.80;8.77;;;11.50;99.90;;;;;;4915832;29;20410;-89
2021/10/11 13:08:25;;;;;;;9.27;7.90;;;11.70;99.90;;;;;;4919688;29;20418;-89
2021/10/11 13:11:09;;;;;;;7.47;6.72;;;11.80;99.90;;;;;;4938587;23;20481;-87
2021/10/11 13:13:55;;;;;;;11.38;8.05;;;11.90;99.90;;;;;;4877849;29;20430;-88
2021/10/11 13:16:39;;;;;;;8.77;7.22;;;12.00;99.90;;;;;;4872701;29;20442;-87
2021/10/11 13:19:23;;;;;;;8.90;6.63;;;12.00;99.90;;;;;;4912011;29;20467;-87
2021/10/11 13:22:11;;;;;;;10.23;7.55;;;12.00;99.90;;;;;;4893282;29;20417;-87
2021/10/11 13:24:55;;;;;;;7.03;6.43;;;11.80;99.90;;;;;;4885236;29;20395;-88
2021/10/11 13:27:39;;;;;;;7.63;6.90;;;11.80;99.90;;;;;;4870133;29;20404;-89
2021/10/11 13:30:57;;;;;;;9.87;8.03;;;11.70;99.90;;;;;;4961356;23;20416;-89
2021/10/11 14:29:30;;;;;;;6.60;5.83;;;11.70;99.90;;;;;;4918958;28;20409;-86
2021/10/11 16:26:55;;;;;;;5.30;4.80;;;10.60;99.90;;;;;;4456262;23;20473;-90
2021/10/11 16:29:40;;;;;;;6.83;6.17;;;10.60;99.90;;;;;;4951057;28;20482;-89
2021/10/11 16:32:24;;;;;;;6.28;5.22;;;10.70;99.90;;;;;;4914066;29;20459;-91
2021/10/11 16:35:09;;;;;;;5.78;4.43;;;10.60;99.90;;;;;;5056532;23;20424;-88
2021/10/11 16:37:53;;;;;;;5.63;4.80;;;10.50;99.90;;;;;;4934688;23;20444;-89
2021/10/11 16:40:38;;;;;;;7.53;5.55;;;10.40;99.90;;;;;;4904370;29;20430;-81
2021/10/11 16:43:22;;;;;;;6.95;5.53;;;10.40;99.90;;;;;;4894045;29;20772;-83
2021/10/11 16:46:07;;;;;;;5.45;4.95;;;10.30;99.90;;;;;;4887599;29;20401;-83
2021/10/11 16:48:52;;;;;;;6.63;5.00;;;10.20;99.90;;;;;;4895496;29;20432;-83
2021/10/11 16:51:39;;;;;;;5.77;4.83;;;10.20;99.90;;;;;;4898631;29;20400;-80
2021/10/11 16:54:24;;;;;;;4.60;3.90;;;10.10;99.90;;;;;;4893809;29;20924;-82
2021/10/11 16:57:10;;;;;;;4.95;4.40;;;10.00;99.90;;;;;;4880855;29;20426;-83
2021/10/11 16:59:57;;;;;;;5.00;4.57;;;9.90;99.90;;;;;;4018022;29;10001640;-83
2021/10/11 17:02:43;;;;;;;6.07;4.80;;;9.80;99.90;;;;;;4864969;29;20422;-82
2021/10/11 17:05:27;;;;;;;4.90;4.25;;;9.70;99.90;;;;;;4879539;29;20430;-81
2021/10/11 17:08:11;;;;;;;5.03;4.60;;;9.70;99.90;;;;;;4897548;29;20455;-82
2021/10/11 17:10:56;;;;;;;4.85;4.03;;;9.70;99.90;;;;;;4885264;29;20467;-82
2021/10/11 17:13:40;;;;;;;3.92;3.60;;;9.60;99.90;;;;;;4877258;29;20486;-81
2021/10/11 17:16:25;;;;;;;5.63;4.40;;;9.50;99.90;;;;;;4855391;29;20482;-82
2021/10/11 17:19:10;;;;;;;6.10;4.88;;;9.40;99.90;;;;;;4878468;29;20438;-82
2021/10/11 17:21:54;;;;;;;5.28;4.65;;;9.30;99.90;;;;;;4881381;29;20982;-80
2021/10/11 17:25:11;;;;;;;7.47;4.88;;;9.20;99.90;;;;;;4854517;29;20408;-82
2021/10/11 17:28:03;;;;;;;8.15;4.95;;;9.20;99.90;;;;;;4879267;29;20472;-81
2021/10/11 17:30:48;;;;;;;4.70;4.30;;;9.10;99.90;;;;;;4888553;29;20410;-81
2021/10/11 17:33:34;;;;;;;6.55;5.70;;;9.00;99.90;;;;;;4895659;29;20403;-81
2021/10/11 17:36:18;;;;;;;6.18;5.15;;;8.90;99.90;;;;;;4882109;29;21020;-82
2021/10/11 17:39:03;;;;;;;8.48;5.63;;;8.90;99.90;;;;;;4878978;29;20850;-81
2021/10/11 17:41:47;;;;;;;6.13;5.53;;;8.80;99.90;;;;;;4879203;29;20464;-82
2021/10/11 17:44:31;;;;;;;5.55;4.80;;;8.80;99.90;;;;;;4880330;29;20457;-81
2021/10/11 17:47:19;;;;;;;7.05;5.90;;;8.70;99.90;;;;;;4850087;29;20412;-81
2021/10/11 17:50:04;;;;;;;5.43;4.93;;;8.60;99.90;;;;;;4868415;29;20418;-82
2021/10/11 17:52:49;;;;;;;5.18;4.68;;;8.60;99.90;;;;;;4874251;29;20416;-81
2021/10/11 17:55:33;;;;;;;6.30;5.60;;;8.60;99.90;;;;;;4872374;29;20415;-81
2021/10/11 17:58:18;;;;;;;5.90;5.40;;;8.50;99.90;;;;;;4857006;29;20652;-82
2021/10/11 18:01:02;;;;;;;6.55;5.85;;;8.40;99.90;;;;;;4869749;29;20484;-81
2021/10/11 18:03:46;;;;;;;7.47;5.43;;;8.50;99.90;;;;;;4860717;29;22070;-81
2021/10/11 18:06:31;;;;;;;5.88;5.22;;;8.50;99.90;;;;;;4880706;29;20426;-81
2021/10/11 18:09:16;;;;;;;7.00;6.10;;;8.40;99.90;;;;;;4879491;29;20505;-82
2021/10/11 18:12:00;;;;;;;6.13;5.50;;;8.40;99.90;;;;;;4884655;29;20479;-81
2021/10/11 18:14:45;;;;;;;7.40;6.50;;;8.40;99.90;;;;;;4884832;29;20444;-81
2021/10/11 18:17:29;;;;;;;8.30;6.43;;;8.30;99.90;;;;;;4892949;29;20439;-83
2021/10/11 18:20:13;;;;;;;6.90;6.10;;;8.40;99.90;;;;;;4905515;29;20434;-83
2021/10/11 18:23:18;;;;;;;6.77;5.83;;;8.30;99.90;;;;;;4865895;29;20575;-83
2021/10/11 18:26:12;;;;;;;7.80;7.00;;;8.40;99.90;;;;;;4835769;29;20442;-83
2021/10/11 18:28:58;;;;;;;9.88;7.63;;;8.10;99.90;;;;;;4881843;29;20414;-82
2021/10/11 18:31:46;;;;;;;7.05;6.22;;;8.10;99.90;;;;;;4879896;29;20955;-82
2021/10/11 18:34:32;;;;;;;7.45;6.10;;;8.10;99.90;;;;;;4884855;29;20440;-83
2021/10/11 18:37:17;;;;;;;6.63;5.80;;;8.20;99.90;;;;;;4875183;29;20455;-82
2021/10/11 18:40:02;;;;;;;7.77;6.50;;;8.10;99.90;;;;;;4878622;29;20432;-82
2021/10/11 18:42:48;;;;;;;6.70;6.00;;;8.10;99.90;;;;;;4910064;29;20434;-83
2021/10/11 18:45:50;;;;;;;9.00;6.85;;;8.00;99.90;;;;;;4898490;29;20419;-82
2021/10/11 18:48:36;;;;;;;7.40;6.03;;;8.00;99.90;;;;;;4874773;29;20422;-83
2021/10/11 18:51:22;;;;;;;8.77;7.40;;;7.90;99.90;;;;;;4873373;29;20792;-82
2021/10/11 18:54:08;;;;;;;8.10;6.82;;;7.90;99.90;;;;;;4852836;29;20412;-82
2021/10/11 18:56:53;;;;;;;7.55;6.55;;;7.90;99.90;;;;;;4865813;29;20930;-82
2021/10/11 18:59:45;;;;;;;6.70;6.03;;;7.90;99.90;;;;;;4890592;29;21013;-82
2021/10/11 19:02:31;;;;;;;8.40;7.07;;;7.80;99.90;;;;;;4866359;29;20417;-82
2021/10/11 19:05:34;;;;;;;8.90;7.05;;;7.80;99.90;;;;;;4896911;29;20419;-81
2021/10/11 19:08:18;;;;;;;8.13;6.97;;;7.80;99.90;;;;;;4907434;29;20443;-82
2021/10/11 19:11:07;;;;;;;7.00;6.13;;;7.80;99.90;;;;;;4896239;29;20390;-82
2021/10/11 19:14:05;;;;;;;8.10;6.63;;;7.80;99.90;;;;;;4908943;29;20506;-83
2021/10/11 19:17:25;;;;;;;8.27;6.28;;;7.90;99.90;;;;;;4915396;29;20409;-82
2021/10/11 19:21:07;;;;;;;8.05;6.75;;;7.80;99.90;;;;;;4908437;29;20442;-83
2021/10/11 19:24:40;;;;;;;9.32;8.38;;;7.90;99.90;;;;;;4880020;29;20414;-82
2021/10/11 19:32:14;;;;;;;7.45;6.68;;;8.00;99.90;;;;;;4889537;29;20426;-81
2021/10/11 19:35:25;;;;;;;6.75;5.80;;;8.00;99.90;;;;;;4878057;29;20444;-81
2021/10/11 19:38:28;;;;;;;7.35;6.65;;;8.00;99.90;;;;;;4886824;29;20510;-82
2021/10/11 19:42:20;;;;;;;9.13;5.83;;;8.10;99.90;;;;;;4866061;29;20534;-82
2021/10/11 19:45:28;;;;;;;6.68;5.93;;;8.10;99.90;;;;;;4881123;29;20429;-82
2021/10/11 19:48:19;;;;;;;7.78;6.97;;;8.20;99.90;;;;;;4898293;29;20441;-82
2021/10/11 19:51:23;;;;;;;8.63;7.13;;;8.30;99.90;;;;;;4884584;29;20440;-81
2021/10/11 19:54:58;;;;;;;7.95;6.75;;;8.30;99.90;;;;;;4883335;29;20476;-82
2021/10/11 19:58:20;;;;;;;7.50;6.70;;;8.30;99.90;;;;;;4880957;29;20524;-83
2021/10/11 20:01:17;;;;;;;7.22;6.22;;;8.50;99.90;;;;;;4869535;29;20448;-82
2021/10/11 20:04:20;;;;;;;7.93;5.68;;;8.60;99.90;;;;;;4891099;29;20434;-82
2021/10/11 20:07:47;;;;;;;8.63;6.40;;;8.70;99.90;;;;;;4872834;29;20470;-82
2021/10/11 20:10:45;;;;;;;7.75;5.88;;;8.70;99.90;;;;;;4870757;29;20438;-82
2021/10/11 20:13:42;;;;;;;7.57;5.63;;;8.80;99.90;;;;;;4862948;29;20813;-82
2021/10/11 20:17:02;;;;;;;5.78;5.22;;;8.80;99.90;;;;;;4907336;29;20541;-82
2021/10/11 20:20:58;;;;;;;6.63;5.17;;;8.80;99.90;;;;;;4862753;29;20532;-82
2021/10/11 20:24:27;;;;;;;6.35;5.68;;;8.90;99.90;;;;;;4874354;29;20562;-81
2021/10/11 20:28:04;;;;;;;4.85;4.32;;;8.90;99.90;;;;;;4894218;29;20425;-82
2021/10/11 20:31:55;;;;;;;6.15;5.47;;;8.80;99.90;;;;;;4874281;29;20432;-82
2021/10/11 20:35:11;;;;;;;4.03;3.60;;;8.80;99.90;;;;;;4906065;29;20428;-82
2021/10/11 20:39:02;;;;;;;5.35;4.85;;;8.80;99.90;;;;;;4869891;29;20497;-81
2021/10/11 20:42:19;;;;;;;5.18;4.35;;;8.70;99.90;;;;;;4826534;29;20498;-82
2021/10/11 20:45:29;;;;;;;4.97;4.47;;;8.70;99.90;;;;;;4854543;29;20491;-79
2021/10/11 20:48:15;;;;;;;4.57;4.20;;;8.60;99.90;;;;;;4852529;29;20421;-79
2021/10/11 20:51:00;;;;;;;4.38;3.70;;;8.60;99.90;;;;;;4890554;29;20457;-81
2021/10/11 20:53:46;;;;;;;5.00;4.50;;;8.60;99.90;;;;;;4865368;29;20817;-81
2021/10/11 20:56:32;;;;;;;6.50;4.35;;;8.50;99.90;;;;;;4870118;29;21084;-80
2021/10/11 20:59:19;;;;;;;5.97;4.10;;;8.50;99.90;;;;;;4881514;29;20914;-80
2021/10/11 21:02:05;;;;;;;4.50;3.75;;;8.40;99.90;;;;;;4885780;29;20416;-81
2021/10/11 21:04:51;;;;;;;5.35;3.92;;;8.40;99.90;;;;;;4892378;29;20494;-81
2021/10/11 21:07:36;;;;;;;5.40;3.88;;;8.30;99.90;;;;;;4875872;29;20776;-80
2021/10/11 21:10:22;;;;;;;3.60;3.30;;;8.30;99.90;;;;;;4878404;29;20802;-81
2021/10/11 21:13:07;;;;;;;4.88;3.63;;;8.30;99.90;;;;;;4869280;29;20960;-81
2021/10/11 21:15:53;;;;;;;3.15;2.92;;;8.20;99.90;;;;;;4870075;29;20444;-80
2021/10/11 21:18:38;;;;;;;4.60;2.80;;;8.20;99.90;;;;;;4870812;29;20508;-80
2021/10/11 21:21:25;;;;;;;3.65;3.10;;;8.20;99.90;;;;;;4876575;29;20927;-80
2021/10/11 21:24:11;;;;;;;3.17;2.78;;;8.20;99.90;;;;;;4872393;29;20496;-81
2021/10/11 21:26:57;;;;;;;3.00;2.70;;;8.20;99.90;;;;;;4872111;29;20530;-80
2021/10/11 21:30:23;;;;;;;2.60;2.40;;;8.20;99.90;;;;;;4876382;29;21102;-82
2021/10/11 21:34:28;;;;;;;2.40;2.20;;;8.20;99.90;;;;;;4922776;29;20533;-82
2021/10/11 21:38:11;;;;;;;2.90;2.60;;;8.20;99.90;;;;;;4886229;29;20448;-82
2021/10/11 21:42:33;;;;;;;2.88;2.50;;;8.10;99.90;;;;;;4897839;29;20437;-82
2021/10/11 21:46:59;;;;;;;2.58;1.95;;;8.00;99.90;;;;;;4895964;29;20514;-82
2021/10/11 21:51:12;;;;;;;2.53;2.33;;;8.00;99.90;;;;;;4849715;29;20492;-82
2021/10/11 21:59:59;;;;;;;2.03;1.92;;;7.90;99.90;;;;;;4704799;29;20440;-82
2021/10/11 22:04:41;;;;;;;2.50;2.30;;;7.80;99.90;;;;;;4822628;29;20429;-82
2021/10/11 22:08:46;;;;;;;2.40;2.17;;;7.80;99.90;;;;;;4789874;29;20484;-82
2021/10/11 22:12:13;;;;;;;2.33;2.13;;;7.90;99.90;;;;;;4799145;29;20460;-82
2021/10/11 22:16:51;;;;;;;2.27;2.07;;;7.80;99.90;;;;;;4736918;29;20461;-82
2021/10/11 22:34:03;;;;;;;3.15;2.50;;;7.80;99.90;;;;;;4787406;29;20488;-82
2021/10/11 22:38:23;;;;;;;2.30;2.20;;;7.70;99.90;;;;;;4726636;30;20437;-83
2021/10/11 22:41:55;;;;;;;2.50;2.20;;;7.70;99.90;;;;;;4733935;30;20479;-81
2021/10/11 22:46:03;;;;;;;2.05;1.85;;;7.70;99.90;;;;;;4750479;29;20467;-81
2021/10/11 23:02:52;;;;;;;1.80;1.70;;;7.50;99.90;;;;;;4748232;30;20470;-82
2021/10/11 23:24:27;;;;;;;2.17;1.98;;;7.70;99.90;;;;;;4816337;29;20450;-82
2021/10/11 23:29:01;;;;;;;2.25;2.00;;;7.80;99.90;;;;;;4805089;29;20496;-83
2021/10/11 23:33:24;;;;;;;2.38;1.80;;;7.90;99.90;;;;;;4763825;29;20467;-82
2021/10/11 23:37:32;;;;;;;1.73;1.63;;;7.90;99.90;;;;;;4771335;29;20443;-82
2021/10/11 23:50:02;;;;;;;1.48;1.38;;;7.80;99.90;;;;;;4852483;29;20429;-82
2021/10/11 23:54:08;;;;;;;1.60;1.50;;;7.80;99.90;;;;;;4800194;29;20449;-82
2021/10/11 23:57:54;;;;;;;1.40;1.30;;;7.80;99.90;;;;;;4796323;29;20565;-82
